Time;durP1;ratioP1;P1;durP2;ratioP2;P2;SDS_P1;SDS_P2;PMS_P1;PMS_P2;Temp;Humidity;BMP_temperature;BMP_pressure;BME280_temperature;BME280_humidity;BME280_pressure;Samples;Min_cycle;Max_cycle;Signal;HPM_P1;HPM_P2
2023/07/18 00:00:32;;;;;;;12.90;3.80;;;14.10;99.90;;;;;;5051247;28;20041;-66
2023/07/18 00:02:59;;;;;;;13.27;4.00;;;14.20;99.90;;;;;;5050432;28;20071;-66
2023/07/18 00:05:25;;;;;;;11.35;4.85;;;13.90;99.90;;;;;;5051202;28;20076;-66
2023/07/18 00:07:51;;;;;;;13.35;4.65;;;13.90;99.90;;;;;;5051071;28;20088;-65
2023/07/18 00:10:19;;;;;;;14.82;4.47;;;13.90;99.90;;;;;;5050222;28;20492;-66
2023/07/18 00:12:45;;;;;;;13.43;4.45;;;13.90;99.90;;;;;;5050775;28;20041;-66
2023/07/18 00:15:11;;;;;;;11.60;3.97;;;13.80;99.90;;;;;;5049816;28;20048;-68
2023/07/18 00:17:37;;;;;;;12.20;4.20;;;13.80;99.90;;;;;;5048813;28;20540;-66
2023/07/18 00:20:07;;;;;;;11.43;4.32;;;13.80;99.90;;;;;;5050083;28;20052;-68
2023/07/18 00:22:34;;;;;;;18.60;5.45;;;13.70;99.90;;;;;;5043368;28;20400;-66
2023/07/18 00:24:59;;;;;;;12.02;4.30;;;13.80;99.90;;;;;;5050669;28;20407;-65
2023/07/18 00:27:25;;;;;;;14.23;4.68;;;13.70;99.90;;;;;;5050596;28;20112;-66
2023/07/18 00:29:51;;;;;;;13.65;4.45;;;13.70;99.90;;;;;;5050184;28;20045;-66
2023/07/18 00:32:16;;;;;;;10.48;4.00;;;13.70;99.90;;;;;;5050246;28;20119;-66
2023/07/18 00:34:44;;;;;;;14.02;4.78;;;13.70;99.90;;;;;;5050061;28;20747;-66
2023/07/18 00:37:10;;;;;;;10.48;4.40;;;13.70;99.90;;;;;;5049821;28;20047;-66
2023/07/18 00:39:35;;;;;;;9.98;3.95;;;13.70;99.90;;;;;;5049975;28;20081;-66
2023/07/18 00:42:01;;;;;;;11.02;4.10;;;13.70;99.90;;;;;;5049801;28;20048;-68
2023/07/18 00:44:27;;;;;;;9.32;4.22;;;13.60;99.90;;;;;;5049600;28;20071;-65
2023/07/18 00:46:53;;;;;;;13.32;4.47;;;13.60;99.90;;;;;;5049820;28;20048;-67
2023/07/18 00:49:18;;;;;;;11.45;4.07;;;13.60;99.90;;;;;;5049063;28;20094;-66
2023/07/18 00:51:44;;;;;;;13.55;4.72;;;13.60;99.90;;;;;;5049887;28;20048;-66
2023/07/18 00:54:10;;;;;;;13.77;4.43;;;13.60;99.90;;;;;;5049607;28;20431;-66
2023/07/18 00:56:36;;;;;;;14.27;4.70;;;13.60;99.90;;;;;;5049475;28;20057;-66
2023/07/18 00:59:03;;;;;;;11.80;4.63;;;13.60;99.90;;;;;;5049526;28;20053;-66
2023/07/18 01:01:29;;;;;;;8.77;4.22;;;13.60;99.90;;;;;;5049345;28;20041;-66
2023/07/18 01:03:54;;;;;;;11.75;4.88;;;13.50;99.90;;;;;;5049376;28;20049;-66
2023/07/18 01:06:23;;;;;;;12.75;4.35;;;13.50;99.90;;;;;;5048986;28;20037;-65
2023/07/18 01:08:48;;;;;;;16.95;4.82;;;13.50;99.90;;;;;;5049508;28;20094;-66
2023/07/18 01:11:14;;;;;;;14.70;4.97;;;13.50;99.90;;;;;;5049409;28;20096;-66
2023/07/18 01:13:40;;;;;;;11.52;4.80;;;13.40;99.90;;;;;;5049191;28;20106;-66
2023/07/18 01:16:05;;;;;;;12.38;4.43;;;13.50;99.90;;;;;;5049390;28;20123;-66
2023/07/18 01:18:31;;;;;;;8.93;4.70;;;13.30;99.90;;;;;;5048820;28;20475;-67
2023/07/18 01:20:58;;;;;;;12.80;4.70;;;13.30;99.90;;;;;;5049172;28;20120;-66
2023/07/18 01:23:24;;;;;;;12.30;4.45;;;13.30;99.90;;;;;;5048685;28;20401;-66
2023/07/18 01:25:49;;;;;;;20.05;5.00;;;13.30;99.90;;;;;;5043285;28;20090;-66
2023/07/18 01:28:15;;;;;;;16.40;4.53;;;13.30;99.90;;;;;;5049367;28;20123;-66
2023/07/18 01:30:41;;;;;;;12.90;4.35;;;13.30;99.90;;;;;;5048819;28;20036;-66
2023/07/18 01:33:06;;;;;;;14.85;5.05;;;13.30;99.90;;;;;;5048977;28;20400;-66
2023/07/18 01:35:32;;;;;;;13.32;5.05;;;13.30;99.90;;;;;;5048470;28;20484;-65
2023/07/18 01:37:58;;;;;;;15.38;5.75;;;13.30;99.90;;;;;;5047491;28;20615;-66
2023/07/18 01:40:24;;;;;;;17.77;4.70;;;13.30;99.90;;;;;;5048977;28;20089;-66
2023/07/18 01:42:52;;;;;;;18.08;4.72;;;13.50;99.90;;;;;;5048925;28;20049;-67
2023/07/18 01:45:27;;;;;;;17.08;5.90;;;13.30;99.90;;;;;;5049089;28;20044;-67
2023/07/18 01:47:55;;;;;;;10.18;4.32;;;13.30;99.90;;;;;;5047135;28;20110;-66
2023/07/18 01:50:20;;;;;;;15.32;4.72;;;13.40;99.90;;;;;;5049226;28;20444;-66
2023/07/18 01:52:49;;;;;;;12.23;5.22;;;13.20;99.90;;;;;;5048406;28;20131;-65
2023/07/18 01:55:15;;;;;;;14.60;4.45;;;13.30;99.90;;;;;;5049060;28;20073;-66
2023/07/18 01:57:41;;;;;;;13.85;4.93;;;13.20;99.90;;;;;;5048954;28;20056;-66
2023/07/18 02:00:11;;;;;;;11.52;4.88;;;13.20;99.90;;;;;;5049280;28;20037;-66
2023/07/18 02:02:38;;;;;;;14.20;5.10;;;13.20;99.90;;;;;;5047969;28;20488;-66
2023/07/18 02:05:04;;;;;;;13.30;4.60;;;13.40;99.90;;;;;;5048413;28;20041;-65
2023/07/18 02:07:30;;;;;;;12.45;4.60;;;13.20;99.90;;;;;;5044165;28;20052;-66
2023/07/18 02:09:56;;;;;;;14.35;5.05;;;13.20;99.90;;;;;;5048221;28;20122;-65
2023/07/18 02:12:22;;;;;;;15.95;5.38;;;13.20;99.90;;;;;;5049068;28;20116;-65
2023/07/18 02:14:48;;;;;;;18.10;5.30;;;13.40;99.90;;;;;;5049022;28;20503;-65
2023/07/18 02:17:13;;;;;;;15.32;4.85;;;13.40;99.90;;;;;;5047752;28;20432;-65
2023/07/18 02:19:40;;;;;;;19.55;5.47;;;13.30;99.90;;;;;;5042680;28;20037;-66
2023/07/18 02:22:05;;;;;;;13.13;5.55;;;13.30;99.90;;;;;;5039787;28;20041;-66
2023/07/18 02:24:31;;;;;;;17.42;4.60;;;13.30;99.90;;;;;;5048377;28;20052;-66
2023/07/18 02:26:58;;;;;;;17.80;5.38;;;13.20;99.90;;;;;;5048558;28;20492;-65
2023/07/18 02:29:25;;;;;;;15.05;4.60;;;13.20;99.90;;;;;;5048697;28;20037;-66
2023/07/18 02:31:50;;;;;;;16.83;4.45;;;13.20;99.90;;;;;;5048837;28;20400;-66
2023/07/18 02:34:16;;;;;;;11.95;4.72;;;13.20;99.90;;;;;;5047787;28;20052;-66
2023/07/18 02:36:42;;;;;;;11.43;4.60;;;13.30;99.90;;;;;;5042981;28;20047;-66
2023/07/18 02:39:10;;;;;;;15.68;5.35;;;13.20;99.90;;;;;;5047848;28;20051;-66
2023/07/18 02:41:36;;;;;;;17.83;4.88;;;13.20;99.90;;;;;;5047779;28;20064;-66
2023/07/18 02:44:02;;;;;;;13.02;4.95;;;13.40;99.90;;;;;;5051556;28;20083;-66
2023/07/18 02:46:27;;;;;;;11.43;4.75;;;13.20;99.90;;;;;;5051847;28;20051;-66
2023/07/18 02:48:53;;;;;;;15.40;5.07;;;13.20;99.90;;;;;;5051980;28;20092;-65
2023/07/18 02:51:19;;;;;;;10.55;5.10;;;13.10;99.90;;;;;;5051839;28;20068;-66
2023/07/18 02:53:44;;;;;;;16.40;4.90;;;13.20;99.90;;;;;;5051562;28;20033;-66
2023/07/18 02:56:10;;;;;;;14.15;4.82;;;13.20;99.90;;;;;;5051892;28;20045;-66
2023/07/18 02:58:36;;;;;;;14.07;4.75;;;13.10;99.90;;;;;;5052233;28;20076;-66
2023/07/18 03:01:03;;;;;;;15.15;4.63;;;13.10;99.90;;;;;;5052056;28;20127;-69
2023/07/18 03:03:29;;;;;;;10.93;4.85;;;13.10;99.90;;;;;;5051370;28;20053;-65
2023/07/18 03:05:56;;;;;;;16.83;5.95;;;13.20;99.90;;;;;;5052023;28;20044;-67
2023/07/18 03:08:22;;;;;;;14.82;5.25;;;13.10;99.90;;;;;;5049921;28;20103;-66
2023/07/18 03:10:47;;;;;;;13.07;5.38;;;13.10;99.90;;;;;;5052049;28;20099;-66
2023/07/18 03:13:13;;;;;;;13.30;4.85;;;13.20;99.90;;;;;;5051732;28;20403;-66
2023/07/18 03:15:39;;;;;;;17.55;5.70;;;13.10;99.90;;;;;;5051149;28;20064;-65
2023/07/18 03:18:08;;;;;;;15.43;5.10;;;13.10;99.90;;;;;;5051436;28;20507;-65
2023/07/18 03:20:34;;;;;;;11.82;5.30;;;13.20;99.90;;;;;;5050916;28;20530;-66
2023/07/18 03:23:01;;;;;;;15.85;4.82;;;13.10;99.90;;;;;;5051461;28;20070;-66
2023/07/18 03:25:27;;;;;;;18.10;5.68;;;13.10;99.90;;;;;;5050578;28;20055;-65
2023/07/18 03:27:53;;;;;;;11.45;4.38;;;13.10;99.90;;;;;;5051632;28;20045;-66
2023/07/18 03:30:19;;;;;;;14.02;5.00;;;13.10;99.90;;;;;;5051494;28;20144;-66
2023/07/18 03:32:45;;;;;;;15.07;5.03;;;13.00;99.90;;;;;;5051402;28;20040;-66
2023/07/18 03:35:11;;;;;;;15.63;5.38;;;13.00;99.90;;;;;;5051310;28;20045;-66
2023/07/18 03:37:37;;;;;;;14.63;5.00;;;13.00;99.90;;;;;;5049954;28;20052;-66
2023/07/18 03:40:06;;;;;;;13.50;5.00;;;13.00;99.90;;;;;;5050696;28;20045;-66
2023/07/18 03:42:32;;;;;;;16.95;5.53;;;13.00;99.90;;;;;;5050966;28;20123;-65
2023/07/18 03:44:58;;;;;;;18.27;5.35;;;13.00;99.90;;;;;;5050990;28;20045;-65
2023/07/18 03:47:23;;;;;;;12.48;4.53;;;13.00;99.90;;;;;;5051144;28;20083;-66
2023/07/18 03:49:50;;;;;;;18.38;5.38;;;13.00;99.90;;;;;;5050748;28;20064;-66
2023/07/18 03:52:15;;;;;;;14.65;5.10;;;13.10;99.90;;;;;;5051286;28;20086;-66
2023/07/18 03:54:42;;;;;;;12.35;4.22;;;13.10;99.90;;;;;;5050829;28;20446;-66
2023/07/18 03:57:08;;;;;;;16.08;5.28;;;13.10;99.90;;;;;;5050623;28;20219;-66
2023/07/18 03:59:33;;;;;;;16.50;5.30;;;13.10;99.90;;;;;;5050908;28;20037;-66
2023/07/18 04:01:59;;;;;;;17.08;4.97;;;13.10;99.90;;;;;;5050237;28;20069;-66
2023/07/18 04:04:24;;;;;;;13.32;4.50;;;13.10;99.90;;;;;;5050812;28;20120;-66
2023/07/18 04:06:50;;;;;;;12.52;4.90;;;13.10;99.90;;;;;;5050337;28;20155;-66
2023/07/18 04:09:16;;;;;;;16.58;4.80;;;13.10;99.90;;;;;;5050853;28;20045;-66
2023/07/18 04:11:43;;;;;;;15.32;4.82;;;13.10;99.90;;;;;;5050375;28;20039;-65
2023/07/18 04:14:09;;;;;;;17.40;5.32;;;13.10;99.90;;;;;;5049324;28;20049;-66
2023/07/18 04:16:35;;;;;;;20.00;4.90;;;13.10;99.90;;;;;;5051169;28;20040;-66
2023/07/18 04:19:00;;;;;;;13.40;5.25;;;13.20;99.90;;;;;;5050158;28;20080;-66
2023/07/18 04:21:26;;;;;;;12.52;4.68;;;13.10;99.90;;;;;;5050190;28;20440;-65
2023/07/18 04:23:52;;;;;;;12.50;3.92;;;13.10;99.90;;;;;;5050357;28;20049;-65
2023/07/18 04:26:17;;;;;;;12.20;4.88;;;13.20;99.90;;;;;;5050284;28;20075;-66
2023/07/18 04:28:43;;;;;;;14.55;5.43;;;13.30;99.90;;;;;;5050445;28;20041;-66
2023/07/18 04:31:09;;;;;;;17.75;4.93;;;13.30;99.90;;;;;;5050149;28;20114;-66
2023/07/18 04:33:36;;;;;;;15.45;5.40;;;13.30;99.90;;;;;;5050328;28;20093;-66
2023/07/18 04:36:07;;;;;;;23.65;4.95;;;13.50;99.90;;;;;;5049723;28;20091;-67
2023/07/18 04:38:34;;;;;;;16.80;4.55;;;13.40;99.90;;;;;;5050298;28;20110;-65
2023/07/18 04:41:00;;;;;;;17.70;5.68;;;13.40;99.90;;;;;;5049585;28;20049;-65
2023/07/18 04:43:27;;;;;;;18.95;5.22;;;13.50;99.90;;;;;;5049651;28;20037;-66
2023/07/18 04:45:52;;;;;;;14.43;5.25;;;13.50;99.90;;;;;;5050105;28;20053;-66
2023/07/18 04:48:18;;;;;;;15.23;4.38;;;13.60;99.90;;;;;;5049748;28;20059;-66
2023/07/18 04:50:46;;;;;;;16.65;5.07;;;13.60;99.90;;;;;;5049531;28;20082;-66
2023/07/18 04:53:12;;;;;;;13.70;4.97;;;13.70;99.90;;;;;;5049237;28;20080;-66
2023/07/18 04:55:38;;;;;;;18.83;5.57;;;13.70;99.90;;;;;;5049997;28;20048;-66
2023/07/18 04:58:06;;;;;;;11.68;4.68;;;13.80;99.90;;;;;;5049257;28;20496;-64
2023/07/18 05:00:32;;;;;;;16.42;5.13;;;13.80;99.90;;;;;;5050097;28;20044;-66
2023/07/18 05:02:59;;;;;;;18.45;5.30;;;13.80;99.90;;;;;;5049299;28;20761;-66
2023/07/18 05:05:29;;;;;;;12.00;5.45;;;13.80;99.90;;;;;;5048807;28;20080;-66
2023/07/18 05:07:56;;;;;;;21.92;5.57;;;13.80;99.90;;;;;;5047664;28;20488;-66
2023/07/18 05:10:24;;;;;;;17.85;4.90;;;13.90;99.90;;;;;;5049413;28;20048;-67
2023/07/18 05:12:54;;;;;;;15.13;4.32;;;13.90;99.90;;;;;;5048972;28;20036;-66
2023/07/18 05:15:20;;;;;;;12.38;5.22;;;13.90;99.90;;;;;;5047541;28;20484;-66
2023/07/18 05:17:47;;;;;;;18.08;5.35;;;14.00;99.90;;;;;;5049587;28;20037;-67
2023/07/18 05:20:13;;;;;;;23.10;4.95;;;14.00;99.90;;;;;;5048934;28;20499;-66
2023/07/18 05:22:40;;;;;;;12.48;5.28;;;14.10;99.90;;;;;;5068833;28;20622;-67
2023/07/18 05:25:07;;;;;;;20.42;5.18;;;14.10;99.90;;;;;;5049575;28;20128;-66
2023/07/18 05:27:33;;;;;;;15.32;5.35;;;14.20;99.90;;;;;;5049179;28;20067;-67
2023/07/18 05:29:59;;;;;;;17.65;5.38;;;14.20;99.90;;;;;;5049139;28;20128;-67
2023/07/18 05:32:25;;;;;;;13.88;5.57;;;14.20;99.90;;;;;;5048782;28;20151;-66
2023/07/18 05:34:50;;;;;;;13.77;5.32;;;14.30;99.90;;;;;;5049430;28;20033;-68
2023/07/18 05:37:16;;;;;;;16.42;5.85;;;14.40;99.90;;;;;;5049430;28;20053;-66
2023/07/18 05:39:42;;;;;;;13.50;5.53;;;14.30;99.90;;;;;;5049153;28;20044;-66
2023/07/18 05:42:08;;;;;;;13.27;6.22;;;14.40;99.90;;;;;;5048911;28;20404;-66
2023/07/18 05:44:33;;;;;;;14.35;5.60;;;14.50;99.90;;;;;;5048351;28;20131;-66
2023/07/18 05:46:59;;;;;;;17.65;6.18;;;14.50;99.90;;;;;;5049042;28;20045;-66
2023/07/18 05:49:26;;;;;;;24.70;5.78;;;14.60;99.90;;;;;;5049042;28;20063;-66
2023/07/18 05:51:52;;;;;;;10.73;5.60;;;14.60;99.90;;;;;;5049141;28;20060;-65
2023/07/18 05:54:17;;;;;;;13.82;5.50;;;14.70;99.90;;;;;;5047434;28;20529;-67
2023/07/18 05:56:43;;;;;;;15.35;5.63;;;14.80;99.90;;;;;;5048727;28;20103;-66
2023/07/18 05:59:09;;;;;;;14.65;5.82;;;14.90;99.90;;;;;;5048772;28;20453;-66
2023/07/18 06:01:35;;;;;;;16.10;5.70;;;14.90;99.90;;;;;;5048564;28;20035;-66
2023/07/18 06:04:00;;;;;;;14.93;5.78;;;15.00;99.90;;;;;;5048848;28;20475;-66
2023/07/18 06:06:26;;;;;;;26.23;6.22;;;15.10;99.90;;;;;;5048585;28;20548;-67
2023/07/18 06:08:52;;;;;;;11.85;5.20;;;15.10;99.90;;;;;;5048683;28;20058;-66
2023/07/18 06:11:21;;;;;;;14.98;5.28;;;15.30;99.90;;;;;;5048271;28;20151;-66
2023/07/18 06:13:51;;;;;;;21.63;6.57;;;15.30;99.90;;;;;;5048765;28;20048;-67
2023/07/18 06:16:17;;;;;;;19.83;5.97;;;15.40;99.90;;;;;;5049682;28;20107;-65
2023/07/18 06:18:42;;;;;;;16.27;5.90;;;15.50;99.90;;;;;;5051997;28;20056;-66
2023/07/18 06:21:08;;;;;;;23.05;5.57;;;15.60;99.90;;;;;;5052385;28;20100;-66
2023/07/18 06:23:34;;;;;;;16.65;5.53;;;15.70;99.90;;;;;;5050987;28;20450;-68
2023/07/18 06:25:59;;;;;;;14.15;5.53;;;15.80;99.90;;;;;;5052765;28;20072;-67
2023/07/18 06:28:25;;;;;;;20.08;5.68;;;15.80;99.90;;;;;;5052738;28;20037;-67
2023/07/18 06:30:54;;;;;;;22.65;6.40;;;16.00;99.90;;;;;;5051997;28;20045;-66
2023/07/18 06:33:20;;;;;;;18.63;5.60;;;16.10;99.90;;;;;;5052420;28;20530;-66
2023/07/18 06:35:53;;;;;;;16.40;5.20;;;16.20;99.90;;;;;;5052675;28;20036;-66
2023/07/18 06:38:19;;;;;;;18.63;5.50;;;16.30;99.90;;;;;;5051121;28;20086;-65
2023/07/18 06:40:50;;;;;;;17.58;6.40;;;16.30;99.90;;;;;;5051856;28;20041;-66
2023/07/18 06:43:18;;;;;;;16.50;6.20;;;16.40;99.90;;;;;;5052192;28;20041;-66
2023/07/18 06:45:46;;;;;;;14.32;5.65;;;16.50;99.90;;;;;;5052326;28;20048;-66
2023/07/18 06:48:12;;;;;;;16.20;5.57;;;16.60;99.90;;;;;;5052184;28;20044;-66
2023/07/18 06:50:46;;;;;;;21.42;5.63;;;16.70;99.90;;;;;;5051930;28;20052;-66
2023/07/18 06:53:15;;;;;;;22.20;5.90;;;16.70;99.90;;;;;;5051761;28;20098;-69
2023/07/18 06:55:41;;;;;;;17.85;4.85;;;16.80;99.90;;;;;;5052147;28;20092;-66
2023/07/18 06:58:09;;;;;;;15.98;5.50;;;16.80;99.90;;;;;;5043680;28;20488;-66
2023/07/18 07:00:35;;;;;;;19.23;5.07;;;16.90;99.90;;;;;;5056096;28;20060;-68
2023/07/18 07:03:01;;;;;;;20.63;6.60;;;16.90;99.90;;;;;;5050813;28;20526;-67
2023/07/18 07:05:27;;;;;;;19.08;5.07;;;17.00;99.90;;;;;;5051916;28;20041;-67
2023/07/18 07:07:53;;;;;;;14.57;4.55;;;17.00;99.90;;;;;;5052116;28;20041;-65
2023/07/18 07:10:19;;;;;;;15.88;5.18;;;17.10;99.90;;;;;;5051910;28;20098;-66
2023/07/18 07:12:44;;;;;;;19.80;5.15;;;17.30;99.90;;;;;;5051928;28;20045;-67
2023/07/18 07:15:11;;;;;;;16.90;5.10;;;17.50;99.90;;;;;;5049954;28;20076;-68
2023/07/18 07:17:38;;;;;;;21.00;5.20;;;17.50;99.90;;;;;;5051393;28;20099;-66
2023/07/18 07:20:06;;;;;;;17.00;5.03;;;17.70;99.90;;;;;;5051166;28;20049;-65
2023/07/18 07:22:32;;;;;;;17.65;5.43;;;17.90;99.90;;;;;;5044271;28;20056;-66
2023/07/18 07:24:57;;;;;;;17.92;5.32;;;18.00;99.90;;;;;;5051729;28;20396;-68
2023/07/18 07:27:23;;;;;;;21.33;5.63;;;18.20;99.90;;;;;;5050067;28;20122;-66
2023/07/18 07:29:49;;;;;;;24.42;6.22;;;18.30;99.90;;;;;;5051170;28;20051;-67
2023/07/18 07:32:15;;;;;;;14.60;5.10;;;18.40;99.90;;;;;;5050821;28;20746;-66
2023/07/18 07:34:42;;;;;;;20.40;5.60;;;18.60;99.90;;;;;;5044246;28;20090;-65
2023/07/18 07:37:08;;;;;;;21.45;6.50;;;18.70;99.90;;;;;;5043482;28;20415;-66
2023/07/18 07:39:34;;;;;;;26.23;6.13;;;19.00;99.90;;;;;;5041233;28;20041;-69
2023/07/18 07:42:01;;;;;;;22.88;5.80;;;19.10;99.90;;;;;;5040035;28;20497;-77
2023/07/18 07:44:27;;;;;;;16.73;5.60;;;19.30;99.90;;;;;;5048627;28;20048;-70
2023/07/18 07:46:53;;;;;;;22.92;5.80;;;19.50;99.90;;;;;;5049549;28;20104;-69
2023/07/18 07:49:21;;;;;;;22.23;5.72;;;19.60;99.90;;;;;;5050353;28;20049;-72
2023/07/18 07:51:46;;;;;;;19.40;5.35;;;19.80;99.90;;;;;;5050997;28;20116;-71
2023/07/18 07:54:12;;;;;;;23.48;6.00;;;19.80;99.90;;;;;;5046395;28;20480;-70
2023/07/18 07:56:37;;;;;;;20.23;5.05;;;20.10;99.90;;;;;;5048860;28;20037;-78
2023/07/18 07:59:03;;;;;;;15.75;4.72;;;20.30;99.90;;;;;;5041121;28;20444;-71
2023/07/18 08:01:29;;;;;;;12.70;4.82;;;20.40;99.90;;;;;;5051638;28;20037;-72
2023/07/18 08:03:54;;;;;;;17.70;5.10;;;20.50;99.90;;;;;;5051341;28;20044;-72
2023/07/18 08:06:21;;;;;;;16.77;4.95;;;20.40;99.90;;;;;;5051379;28;20098;-69
2023/07/18 08:08:47;;;;;;;13.88;4.95;;;20.50;99.90;;;;;;5051438;28;20037;-69
2023/07/18 08:11:12;;;;;;;19.20;5.32;;;20.60;99.90;;;;;;5052481;28;20037;-68
2023/07/18 08:13:38;;;;;;;18.25;4.30;;;20.90;99.90;;;;;;5043954;28;20048;-70
2023/07/18 08:16:05;;;;;;;12.18;4.40;;;21.10;99.90;;;;;;5049168;28;20037;-70
2023/07/18 08:18:31;;;;;;;15.38;4.13;;;21.10;99.90;;;;;;5045446;28;20079;-70
2023/07/18 08:20:57;;;;;;;13.73;3.92;;;21.30;99.90;;;;;;5051299;28;20045;-71
2023/07/18 08:23:23;;;;;;;11.82;3.55;;;21.30;99.90;;;;;;5050717;28;20848;-69
2023/07/18 08:25:49;;;;;;;12.40;3.05;;;21.20;99.90;;;;;;5045709;28;20077;-71
2023/07/18 08:28:15;;;;;;;11.20;3.63;;;21.20;99.90;;;;;;5044648;28;20064;-73
2023/07/18 08:30:40;;;;;;;12.10;3.05;;;21.20;99.90;;;;;;5048374;28;20078;-69
2023/07/18 08:33:08;;;;;;;10.98;2.90;;;21.20;99.90;;;;;;5051224;28;20502;-71
2023/07/18 08:35:34;;;;;;;12.50;3.70;;;21.20;99.90;;;;;;5050707;28;20087;-76
2023/07/18 08:37:59;;;;;;;12.20;2.47;;;21.10;99.90;;;;;;5048810;28;20048;-71
2023/07/18 08:40:25;;;;;;;13.30;3.00;;;21.20;99.90;;;;;;5050321;28;20058;-70
2023/07/18 08:42:51;;;;;;;15.63;3.15;;;21.20;99.90;;;;;;5040909;28;20091;-70
2023/07/18 08:45:19;;;;;;;15.00;2.42;;;21.50;99.90;;;;;;5051198;28;20040;-74
2023/07/18 08:47:47;;;;;;;11.82;3.05;;;21.60;99.90;;;;;;5048922;28;20072;-71
2023/07/18 08:50:12;;;;;;;9.18;2.13;;;21.60;99.90;;;;;;5046209;28;20063;-77
2023/07/18 08:52:39;;;;;;;8.88;2.10;;;21.80;99.90;;;;;;5050607;28;20049;-71
2023/07/18 08:55:05;;;;;;;8.90;1.90;;;21.80;99.90;;;;;;5050314;28;20047;-71
2023/07/18 08:57:32;;;;;;;10.00;1.75;;;21.90;99.90;;;;;;5050768;28;20112;-71
2023/07/18 09:00:04;;;;;;;8.40;1.45;;;22.20;99.90;;;;;;5050521;28;20729;-69
2023/07/18 09:02:30;;;;;;;6.72;2.03;;;22.20;99.90;;;;;;5050076;28;20049;-70
2023/07/18 09:04:55;;;;;;;14.20;2.40;;;22.20;99.90;;;;;;5050806;28;20053;-69
2023/07/18 09:07:26;;;;;;;7.60;2.33;;;22.30;99.90;;;;;;5042418;28;20049;-70
2023/07/18 09:09:57;;;;;;;11.77;1.90;;;22.30;99.90;;;;;;5042308;28;20053;-70
2023/07/18 09:12:23;;;;;;;8.73;1.63;;;22.40;99.90;;;;;;5038430;28;20053;-73
2023/07/18 09:14:56;;;;;;;8.70;2.08;;;22.70;99.90;;;;;;5038023;28;20599;-68
2023/07/18 09:17:22;;;;;;;9.20;1.80;;;22.90;99.90;;;;;;5043061;28;20044;-69
2023/07/18 09:19:48;;;;;;;10.25;2.17;;;23.20;99.90;;;;;;5042229;28;20294;-69
2023/07/18 09:22:17;;;;;;;11.52;1.95;;;23.40;99.90;;;;;;5039653;28;20056;-69
2023/07/18 09:24:43;;;;;;;8.60;2.35;;;23.50;99.90;;;;;;5039106;28;20045;-70
2023/07/18 09:27:15;;;;;;;14.48;2.55;;;23.50;99.90;;;;;;5038673;28;20053;-76
2023/07/18 09:29:46;;;;;;;9.80;2.08;;;23.40;99.90;;;;;;5042075;28;20385;-70
2023/07/18 09:32:19;;;;;;;9.13;2.15;;;23.30;99.90;;;;;;5041815;28;20053;-70
2023/07/18 09:34:55;;;;;;;13.80;3.20;;;23.20;99.90;;;;;;5039057;28;20041;-69
2023/07/18 09:37:21;;;;;;;12.93;2.63;;;22.90;99.90;;;;;;5037887;28;20053;-70
2023/07/18 09:39:47;;;;;;;10.48;2.42;;;22.80;99.90;;;;;;5041854;28;20033;-69
2023/07/18 09:42:17;;;;;;;9.95;2.83;;;23.00;99.90;;;;;;5043946;28;20404;-69
2023/07/18 09:44:46;;;;;;;12.18;2.30;;;23.10;99.90;;;;;;5049220;28;20045;-69
2023/07/18 09:47:13;;;;;;;12.32;2.30;;;23.40;99.90;;;;;;5049594;28;20076;-69
2023/07/18 09:49:40;;;;;;;10.10;2.08;;;23.20;99.90;;;;;;5048006;28;20044;-69
2023/07/18 09:52:06;;;;;;;9.88;2.70;;;23.20;99.90;;;;;;5049036;28;20484;-69
2023/07/18 09:54:33;;;;;;;10.40;2.60;;;23.40;99.90;;;;;;5049487;28;20126;-70
2023/07/18 09:57:12;;;;;;;14.75;2.95;;;23.40;99.90;;;;;;5045787;28;20041;-68
2023/07/18 09:59:39;;;;;;;14.40;3.45;;;23.20;99.90;;;;;;5050179;28;20045;-69
2023/07/18 10:02:06;;;;;;;10.57;2.35;;;23.30;99.90;;;;;;5044208;28;20580;-69
2023/07/18 10:04:35;;;;;;;8.52;2.08;;;23.20;99.90;;;;;;5049140;28;20156;-70
2023/07/18 10:07:02;;;;;;;8.23;1.85;;;23.00;99.90;;;;;;5049515;28;20052;-67
2023/07/18 10:09:32;;;;;;;9.82;2.58;;;23.10;99.90;;;;;;5049305;28;20045;-70
2023/07/18 10:11:57;;;;;;;9.82;2.13;;;23.00;99.90;;;;;;5049125;28;20075;-68
2023/07/18 10:14:26;;;;;;;9.45;2.42;;;22.80;99.90;;;;;;5047928;28;20087;-70
2023/07/18 10:17:04;;;;;;;15.75;2.67;;;22.70;99.90;;;;;;5049580;28;20184;-68
2023/07/18 10:19:45;;;;;;;11.95;2.70;;;22.60;99.90;;;;;;5044935;28;20051;-69
2023/07/18 10:22:12;;;;;;;10.02;2.53;;;22.60;99.90;;;;;;5048678;28;20049;-68
2023/07/18 10:24:49;;;;;;;12.13;2.63;;;22.50;99.90;;;;;;5050078;28;20048;-67
2023/07/18 10:27:14;;;;;;;10.48;2.40;;;22.70;99.90;;;;;;5049168;28;20044;-74
2023/07/18 10:29:41;;;;;;;10.98;2.25;;;23.00;99.90;;;;;;5049786;28;20029;-80
2023/07/18 10:32:13;;;;;;;13.70;2.50;;;23.20;99.90;;;;;;5048980;28;20049;-72
2023/07/18 10:34:51;;;;;;;7.72;1.90;;;23.40;99.90;;;;;;5043835;28;20044;-69
2023/07/18 10:37:26;;;;;;;7.30;2.03;;;23.60;99.90;;;;;;5049148;28;20102;-69
2023/07/18 10:39:53;;;;;;;7.88;1.85;;;23.80;99.90;;;;;;5048730;28;20378;-71
2023/07/18 10:42:20;;;;;;;8.73;2.10;;;23.90;99.90;;;;;;5049547;28;20102;-70
2023/07/18 10:44:55;;;;;;;9.75;2.40;;;24.00;99.90;;;;;;5049254;28;20067;-75
2023/07/18 10:47:20;;;;;;;9.25;1.80;;;24.00;99.90;;;;;;5049245;28;20049;-76
2023/07/18 10:49:49;;;;;;;8.35;1.75;;;24.00;99.90;;;;;;5048007;28;20060;-73
2023/07/18 10:52:16;;;;;;;6.65;1.50;;;24.00;99.90;;;;;;5047625;28;20098;-69
2023/07/18 10:54:45;;;;;;;5.20;1.65;;;23.90;99.90;;;;;;5047997;28;20122;-68
2023/07/18 10:57:13;;;;;;;8.10;1.65;;;23.70;99.90;;;;;;5049161;28;20040;-70
2023/07/18 10:59:43;;;;;;;9.43;1.85;;;23.90;99.90;;;;;;5048653;28;20037;-69
2023/07/18 11:02:09;;;;;;;7.25;1.85;;;24.00;99.90;;;;;;5049193;28;20041;-70
2023/07/18 11:04:35;;;;;;;9.77;2.03;;;24.00;99.90;;;;;;5052404;28;20048;-70
2023/07/18 11:07:00;;;;;;;11.27;2.05;;;23.80;99.90;;;;;;5051558;28;20498;-68
2023/07/18 11:09:26;;;;;;;7.75;1.80;;;23.70;99.90;;;;;;5046031;28;20127;-70
2023/07/18 11:12:04;;;;;;;6.50;1.50;;;23.70;99.90;;;;;;5052304;28;20033;-66
2023/07/18 11:14:40;;;;;;;9.50;1.77;;;23.50;99.90;;;;;;5050110;28;20056;-70
2023/07/18 11:17:17;;;;;;;6.13;2.35;;;23.40;99.90;;;;;;5051746;28;20102;-72
2023/07/18 11:19:43;;;;;;;6.88;1.80;;;23.30;99.90;;;;;;5052266;28;20143;-68
2023/07/18 11:22:15;;;;;;;11.07;2.10;;;23.20;99.90;;;;;;5051258;28;20424;-68
2023/07/18 11:24:45;;;;;;;8.05;1.73;;;23.00;99.90;;;;;;5050193;28;20083;-71
2023/07/18 11:27:15;;;;;;;10.70;2.00;;;23.00;99.90;;;;;;5051416;28;20045;-71
2023/07/18 11:29:54;;;;;;;6.97;1.83;;;22.80;99.90;;;;;;5050786;28;20171;-69
2023/07/18 11:32:45;;;;;;;5.75;1.73;;;22.80;99.90;;;;;;5051607;28;20044;-69
2023/07/18 11:35:18;;;;;;;8.38;1.40;;;22.60;99.90;;;;;;5051721;28;20041;-69
2023/07/18 11:37:46;;;;;;;9.88;1.50;;;22.60;99.90;;;;;;5051627;28;20091;-69
2023/07/18 11:40:20;;;;;;;9.57;1.58;;;22.60;99.90;;;;;;5051439;28;20049;-74
2023/07/18 11:42:48;;;;;;;9.07;1.63;;;22.60;99.90;;;;;;5051448;28;20041;-69
2023/07/18 11:45:21;;;;;;;7.65;1.95;;;22.50;99.90;;;;;;5051868;28;20044;-69
2023/07/18 11:47:55;;;;;;;5.70;1.40;;;22.40;99.90;;;;;;5051252;28;20037;-69
2023/07/18 11:50:24;;;;;;;10.52;1.73;;;22.50;99.90;;;;;;5051326;28;20049;-69
2023/07/18 11:52:51;;;;;;;6.85;1.33;;;22.30;99.90;;;;;;5050943;28;20037;-68
2023/07/18 11:55:18;;;;;;;8.68;1.40;;;22.30;99.90;;;;;;5050905;28;20063;-68
2023/07/18 11:57:44;;;;;;;11.57;1.58;;;22.20;99.90;;;;;;5049467;28;20512;-68
2023/07/18 12:00:11;;;;;;;7.38;1.27;;;22.20;99.90;;;;;;5051087;28;20625;-69
2023/07/18 12:02:37;;;;;;;7.60;1.65;;;22.10;99.90;;;;;;5049266;28;20095;-69
2023/07/18 12:05:07;;;;;;;9.30;1.67;;;22.00;99.90;;;;;;5051510;28;20515;-68
2023/07/18 12:07:33;;;;;;;7.28;1.50;;;22.20;99.90;;;;;;5051136;28;20041;-67
2023/07/18 12:09:59;;;;;;;5.18;1.00;;;22.20;99.90;;;;;;5050664;28;20056;-69
2023/07/18 12:12:25;;;;;;;6.32;1.10;;;22.20;99.90;;;;;;5050766;28;20127;-68
2023/07/18 12:14:51;;;;;;;4.40;1.05;;;22.20;99.90;;;;;;5051395;28;20128;-69
2023/07/18 12:17:17;;;;;;;8.65;1.65;;;22.10;99.90;;;;;;5046223;28;20041;-68
2023/07/18 12:19:44;;;;;;;7.05;1.10;;;22.00;99.90;;;;;;5051593;28;20037;-69
2023/07/18 12:22:11;;;;;;;7.03;1.40;;;22.00;99.90;;;;;;5041099;28;20080;-68
2023/07/18 12:24:37;;;;;;;8.35;1.52;;;22.00;99.90;;;;;;5042321;28;20484;-68
2023/07/18 12:27:06;;;;;;;6.18;1.60;;;22.00;99.90;;;;;;5050719;28;20048;-68
2023/07/18 12:29:32;;;;;;;7.35;1.40;;;22.00;99.90;;;;;;5048443;28;20041;-68
2023/07/18 12:31:58;;;;;;;7.93;1.35;;;22.10;99.90;;;;;;5050827;28;20147;-68
2023/07/18 12:34:23;;;;;;;5.43;1.23;;;22.00;99.90;;;;;;5051072;28;20120;-69
2023/07/18 12:36:50;;;;;;;8.95;1.38;;;22.00;99.90;;;;;;5042826;28;20037;-69